Time;durP1;ratioP1;P1;durP2;ratioP2;P2;SDS_P1;SDS_P2;PMS_P1;PMS_P2;Temp;Humidity;BMP_temperature;BMP_pressure;BME280_temperature;BME280_humidity;BME280_pressure;Samples;Min_cycle;Max_cycle;Signal;HPM_P1;HPM_P2
2022/07/03 00:01:55;;;;;;;2.83;2.10;;;;;;;21.62;48.20;101596.03;5055948;28;20037;-67
2022/07/03 00:04:22;;;;;;;2.50;2.20;;;;;;;21.57;48.55;101591.06;5055700;28;20064;-67
2022/07/03 00:06:49;;;;;;;2.30;1.77;;;;;;;21.52;48.62;101590.66;5055528;28;20052;-68
2022/07/03 00:09:17;;;;;;;2.45;1.63;;;;;;;21.48;48.42;101586.53;5056161;28;20052;-68
2022/07/03 00:11:44;;;;;;;3.25;2.15;;;;;;;21.43;48.86;101578.84;5054764;28;20487;-67
2022/07/03 00:14:12;;;;;;;2.95;1.98;;;;;;;21.41;48.93;101582.75;5055410;28;20491;-67
2022/07/03 00:16:39;;;;;;;2.53;2.28;;;;;;;21.39;48.80;101576.59;5055362;28;20056;-68
2022/07/03 00:19:07;;;;;;;2.17;1.85;;;;;;;21.36;48.47;101582.38;5055426;28;20131;-67
2022/07/03 00:21:57;;;;;;;3.35;1.88;;;;;;;21.31;48.69;101580.13;5055481;28;20128;-68
2022/07/03 00:24:40;;;;;;;3.10;1.92;;;;;;;21.30;48.82;101578.41;5044879;28;20403;-68
2022/07/03 00:27:09;;;;;;;2.13;1.92;;;;;;;21.28;48.60;101569.53;5055487;28;20407;-67
2022/07/03 00:29:42;;;;;;;2.20;2.00;;;;;;;21.28;48.88;101579.59;5053696;28;20449;-68
2022/07/03 00:32:18;;;;;;;2.42;2.00;;;;;;;21.25;48.71;101581.63;5055123;28;20041;-68
2022/07/03 00:34:50;;;;;;;3.17;2.05;;;;;;;21.23;48.99;101578.19;5054101;28;20083;-68
2022/07/03 00:37:17;;;;;;;3.95;1.90;;;;;;;21.24;48.60;101581.78;5055144;28;20037;-68
2022/07/03 00:39:44;;;;;;;3.35;2.15;;;;;;;21.23;49.05;101580.94;5055230;28;20045;-68
2022/07/03 00:42:12;;;;;;;2.42;2.00;;;;;;;21.22;49.09;101579.22;5054590;28;20376;-68
2022/07/03 00:44:50;;;;;;;2.83;2.28;;;;;;;21.21;49.25;101577.47;5053892;28;20037;-68
2022/07/03 00:47:19;;;;;;;4.25;2.30;;;;;;;21.21;49.47;101576.59;5053543;28;20037;-68
2022/07/03 00:49:51;;;;;;;3.63;2.25;;;;;;;21.18;49.18;101575.06;5054932;28;20061;-68
2022/07/03 00:52:35;;;;;;;4.57;2.60;;;;;;;21.14;49.13;101579.13;5036845;28;20426;-68
2022/07/03 00:55:07;;;;;;;4.63;3.00;;;;;;;21.13;48.98;101580.13;5053650;28;20601;-68
2022/07/03 00:57:35;;;;;;;2.80;2.50;;;;;;;21.11;49.09;101582.19;5054387;28;20056;-67
2022/07/03 01:00:02;;;;;;;3.67;2.60;;;;;;;21.09;49.30;101577.88;5054580;28;20041;-67
2022/07/03 01:02:45;;;;;;;3.20;2.70;;;;;;;21.07;49.38;101571.72;5054435;28;20132;-68
2022/07/03 01:05:52;;;;;;;3.10;2.80;;;;;;;21.03;48.95;101573.06;5053260;28;20057;-67
2022/07/03 01:08:49;;;;;;;4.50;2.40;;;;;;;21.02;48.95;101583.13;5024814;28;20516;-68
2022/07/03 01:11:31;;;;;;;3.13;2.80;;;;;;;21.00;49.32;101576.13;5033390;28;20037;-67
2022/07/03 01:14:08;;;;;;;4.38;2.72;;;;;;;20.98;49.08;101576.28;5033184;28;20050;-67
2022/07/03 01:16:47;;;;;;;5.07;3.17;;;;;;;20.96;49.28;101580.19;5034488;28;20044;-68
2022/07/03 01:19:36;;;;;;;5.45;3.40;;;;;;;20.91;49.36;101576.06;5034262;28;20042;-67
2022/07/03 01:22:18;;;;;;;3.83;3.20;;;;;;;20.90;49.51;101578.94;5053077;28;20045;-68
2022/07/03 01:25:35;;;;;;;4.05;3.00;;;;;;;20.86;49.19;101577.53;5052735;28;20033;-68
2022/07/03 01:28:11;;;;;;;2.65;2.45;;;;;;;20.82;49.11;101593.38;5054027;28;20041;-69
2022/07/03 01:31:00;;;;;;;6.05;3.15;;;;;;;20.73;49.21;101588.84;5053061;28;20399;-69
2022/07/03 01:33:33;;;;;;;5.20;2.50;;;;;;;20.67;49.41;101585.88;5053764;28;20059;-68
2022/07/03 01:36:06;;;;;;;3.60;3.05;;;;;;;20.61;49.04;101587.34;5053296;28;20124;-68
2022/07/03 01:38:37;;;;;;;5.50;4.10;;;;;;;20.56;49.43;101584.25;5053590;28;20087;-67
2022/07/03 01:41:07;;;;;;;5.22;4.20;;;;;;;20.45;49.54;101589.94;5053617;28;20048;-67
2022/07/03 01:43:41;;;;;;;5.18;3.80;;;;;;;20.32;49.31;101593.00;5053640;28;20559;-67
2022/07/03 01:46:10;;;;;;;7.45;4.85;;;;;;;20.25;49.34;101594.63;5053450;28;20060;-66
2022/07/03 01:48:42;;;;;;;6.18;4.72;;;;;;;20.22;49.98;101598.53;5052169;28;20079;-66
2022/07/03 01:51:13;;;;;;;5.97;4.80;;;;;;;20.20;49.91;101602.41;5053425;28;20043;-66
2022/07/03 01:53:46;;;;;;;5.07;4.53;;;;;;;20.20;49.79;101607.88;5053417;28;20036;-67
2022/07/03 01:56:17;;;;;;;7.50;5.22;;;;;;;20.19;49.78;101600.69;5053526;28;20037;-66
2022/07/03 01:58:44;;;;;;;5.10;4.70;;;;;;;20.18;49.99;101602.56;5053164;28;20406;-67
2022/07/03 02:01:33;;;;;;;5.97;5.40;;;;;;;20.14;50.35;101603.88;5053432;28;20118;-68
2022/07/03 02:04:22;;;;;;;6.60;6.00;;;;;;;20.15;50.50;101600.16;5052956;28;20044;-67
2022/07/03 02:07:03;;;;;;;6.57;5.93;;;;;;;20.14;50.29;101595.72;5053073;28;20040;-67
2022/07/03 02:09:43;;;;;;;6.70;6.07;;;;;;;20.14;50.13;101600.31;5052783;28;20414;-67
2022/07/03 02:12:13;;;;;;;7.22;6.53;;;;;;;20.12;50.66;101596.88;5052791;28;20045;-68
2022/07/03 02:14:44;;;;;;;7.38;6.13;;;;;;;20.11;50.33;101592.44;5052587;28;20045;-67
2022/07/03 02:17:18;;;;;;;7.07;6.35;;;;;;;20.12;50.93;101589.56;5053090;28;20376;-67
2022/07/03 02:19:57;;;;;;;7.97;7.18;;;;;;;20.13;50.70;101583.09;5051785;28;20053;-67
2022/07/03 02:22:52;;;;;;;9.23;7.10;;;;;;;20.15;51.01;101589.25;5051859;28;20245;-68
2022/07/03 02:25:22;;;;;;;7.78;6.80;;;;;;;20.18;50.81;101588.06;5053107;28;20041;-67
2022/07/03 02:27:57;;;;;;;7.60;6.40;;;;;;;20.20;51.01;101588.78;5052842;28;20479;-67
2022/07/03 02:30:27;;;;;;;8.07;7.32;;;;;;;20.21;51.01;101583.16;5052732;28;20048;-68
2022/07/03 02:32:56;;;;;;;14.13;6.82;;;;;;;20.23;50.86;101596.66;5052538;28;20041;-68
2022/07/03 02:35:31;;;;;;;7.97;6.65;;;;;;;20.24;51.29;101587.47;5052406;28;20045;-68
2022/07/03 02:38:06;;;;;;;8.95;7.00;;;;;;;20.24;50.97;101590.19;5052211;28;20487;-67
2022/07/03 02:40:54;;;;;;;7.93;7.13;;;;;;;20.22;51.08;101587.63;5052416;28;20052;-67
2022/07/03 02:43:51;;;;;;;7.78;7.07;;;;;;;20.18;51.00;101591.66;5052100;28;20036;-68
2022/07/03 02:49:27;;;;;;;8.90;6.60;;;;;;;20.11;51.21;101587.84;5052112;28;20439;-68
2022/07/03 02:52:10;;;;;;;8.27;7.40;;;;;;;20.09;51.41;101589.00;5051987;28;20398;-69
2022/07/03 02:54:44;;;;;;;8.02;6.68;;;;;;;20.04;51.10;101592.16;5051431;28;20049;-69
2022/07/03 02:57:13;;;;;;;7.57;6.77;;;;;;;20.01;50.84;101595.19;5052265;28;20044;-69
2022/07/03 03:00:04;;;;;;;10.18;7.82;;;;;;;19.96;50.94;101590.19;5051957;28;20041;-68
2022/07/03 03:02:49;;;;;;;7.93;6.93;;;;;;;19.91;51.14;101584.31;5051788;28;20041;-68
2022/07/03 03:05:21;;;;;;;9.67;7.53;;;;;;;19.89;51.32;101596.41;5052038;28;20407;-68
2022/07/03 03:08:19;;;;;;;10.65;7.65;;;;;;;19.83;51.41;101592.41;5052244;28;20283;-69
2022/07/03 03:10:50;;;;;;;9.45;8.50;;;;;;;19.80;51.07;101595.44;5051845;28;20033;-68
2022/07/03 03:13:19;;;;;;;8.38;7.57;;;;;;;19.74;51.40;101587.84;5051513;28;20067;-68
2022/07/03 03:16:03;;;;;;;12.20;8.48;;;;;;;19.68;51.34;101594.78;5051817;28;20124;-68
2022/07/03 03:18:33;;;;;;;10.07;8.68;;;;;;;19.64;51.41;101601.53;5051779;28;20045;-67
2022/07/03 03:21:02;;;;;;;8.77;7.88;;;;;;;19.61;51.62;101601.81;5051565;28;20059;-68
2022/07/03 03:23:37;;;;;;;8.65;7.75;;;;;;;19.58;51.61;101599.41;5051650;28;20045;-68
2022/07/03 03:26:04;;;;;;;8.60;7.72;;;;;;;19.54;51.70;101594.41;5051763;28;20050;-67
2022/07/03 03:28:31;;;;;;;8.18;7.38;;;;;;;19.47;52.06;101605.00;5051566;28;20131;-67
2022/07/03 03:30:58;;;;;;;9.30;8.35;;;;;;;19.43;52.01;101592.69;5054150;28;20049;-67
2022/07/03 03:33:26;;;;;;;9.93;8.27;;;;;;;19.41;52.21;101594.69;5055729;28;20379;-67
2022/07/03 03:35:53;;;;;;;9.80;8.80;;;;;;;19.40;52.43;101600.28;5055556;28;20041;-67
2022/07/03 03:38:19;;;;;;;11.00;8.90;;;;;;;19.39;51.93;101601.28;5055554;28;20132;-66
2022/07/03 03:40:46;;;;;;;9.30;8.50;;;;;;;19.38;52.18;101607.75;5055484;28;20479;-66
2022/07/03 03:43:17;;;;;;;10.10;9.07;;;;;;;19.36;52.19;101613.34;5054740;28;20041;-67
2022/07/03 03:45:44;;;;;;;12.07;8.55;;;;;;;19.34;52.60;101608.06;5055030;28;20482;-67
2022/07/03 03:48:10;;;;;;;9.30;8.43;;;;;;;19.33;52.51;101617.22;5035312;28;20053;-67
2022/07/03 03:50:37;;;;;;;9.82;8.85;;;;;;;19.30;52.29;101613.91;5035381;28;20048;-67
2022/07/03 03:53:10;;;;;;;10.57;8.20;;;;;;;19.27;52.51;101612.34;5035318;28;20120;-67
2022/07/03 03:55:36;;;;;;;9.65;8.57;;;;;;;19.26;52.31;101607.03;5035361;28;20107;-67
2022/07/03 03:58:04;;;;;;;7.82;7.13;;;;;;;19.27;52.45;101617.78;5035140;28;20136;-68
2022/07/03 04:00:31;;;;;;;12.00;8.77;;;;;;;19.26;52.77;101612.47;5035303;28;20604;-67
2022/07/03 04:02:57;;;;;;;11.57;8.93;;;;;;;19.25;52.88;101608.91;5038844;28;20053;-68
2022/07/03 04:05:24;;;;;;;12.48;9.95;;;;;;;19.24;52.54;101615.34;5054837;28;20055;-67
2022/07/03 04:07:50;;;;;;;9.73;8.77;;;;;;;19.25;53.10;101608.03;5054927;28;20045;-67
2022/07/03 04:10:17;;;;;;;10.65;9.40;;;;;;;19.25;52.74;101613.47;5054830;28;20051;-66
2022/07/03 04:12:44;;;;;;;9.43;8.50;;;;;;;19.23;53.14;101610.06;5054822;28;20045;-67
2022/07/03 04:15:10;;;;;;;9.82;8.77;;;;;;;19.21;52.93;101615.66;5054667;28;20053;-66
2022/07/03 04:17:37;;;;;;;11.55;9.32;;;;;;;19.22;53.46;101613.78;5054739;28;20407;-67
2022/07/03 04:20:04;;;;;;;10.70;9.60;;;;;;;19.22;53.47;101611.06;5054617;28;20045;-67
2022/07/03 04:22:35;;;;;;;10.05;9.15;;;;;;;19.21;53.32;101612.06;5057450;28;20139;-67
2022/07/03 04:25:01;;;;;;;10.15;9.25;;;;;;;19.21;53.61;101610.19;5056283;28;20098;-67
2022/07/03 04:27:29;;;;;;;12.25;10.95;;;;;;;19.22;53.71;101617.38;5055839;28;20039;-67
2022/07/03 04:30:16;;;;;;;12.73;11.43;;;;;;;19.25;53.48;101614.34;5057101;28;20111;-67
2022/07/03 04:32:47;;;;;;;12.82;11.68;;;;;;;19.27;53.46;101612.34;5062973;28;20051;-67
2022/07/03 04:35:14;;;;;;;12.15;11.05;;;;;;;19.31;53.58;101619.22;5041584;28;20042;-67
2022/07/03 04:37:41;;;;;;;11.20;10.07;;;;;;;19.31;53.41;101626.53;5044336;28;20036;-67
2022/07/03 04:40:09;;;;;;;11.63;10.52;;;;;;;19.33;53.83;101621.81;5055252;28;20057;-67
2022/07/03 04:42:37;;;;;;;11.93;10.85;;;;;;;19.33;53.63;101624.53;5054501;28;20136;-68
2022/07/03 04:45:07;;;;;;;12.40;10.70;;;;;;;19.31;53.72;101626.53;5055293;28;20060;-67
2022/07/03 04:47:34;;;;;;;15.05;13.10;;;;;;;19.30;53.81;101625.66;5054286;28;20045;-67
2022/07/03 04:50:00;;;;;;;15.00;13.00;;;;;;;19.30;53.85;101625.66;5055374;28;20045;-67
2022/07/03 04:52:28;;;;;;;14.43;12.20;;;;;;;19.30;54.07;101627.53;5055044;28;20040;-68
2022/07/03 04:54:57;;;;;;;13.77;12.48;;;;;;;19.29;54.21;101632.09;5055260;28;20047;-68
2022/07/03 04:57:23;;;;;;;14.05;12.63;;;;;;;19.29;54.46;101634.84;5055357;28;20052;-69
2022/07/03 04:59:50;;;;;;;15.05;12.48;;;;;;;19.28;54.06;101629.53;5055436;28;20041;-68
2022/07/03 05:02:16;;;;;;;14.30;12.70;;;;;;;19.26;54.35;101637.00;5054955;28;20037;-68
2022/07/03 05:04:43;;;;;;;13.68;12.27;;;;;;;19.28;54.45;101637.69;5053807;28;20057;-68
2022/07/03 05:07:09;;;;;;;14.38;12.98;;;;;;;19.33;54.44;101640.88;5055246;28;20044;-69
2022/07/03 05:09:36;;;;;;;16.30;14.70;;;;;;;19.39;54.67;101639.44;5055119;28;20540;-68
2022/07/03 05:12:03;;;;;;;16.95;14.65;;;;;;;19.42;54.69;101636.41;5054815;28;20040;-67
2022/07/03 05:14:31;;;;;;;17.77;16.15;;;;;;;19.43;54.81;101635.41;5055419;28;20379;-68
2022/07/03 05:16:58;;;;;;;17.63;15.90;;;;;;;19.45;55.48;101636.13;5054925;28;20055;-68
2022/07/03 05:19:24;;;;;;;18.25;16.45;;;;;;;19.51;55.55;101638.25;5055063;28;20040;-68
2022/07/03 05:21:51;;;;;;;17.95;16.10;;;;;;;19.58;55.35;101634.81;5054656;28;20123;-68
2022/07/03 05:24:18;;;;;;;16.88;15.18;;;;;;;19.65;55.49;101632.34;5054931;28;20051;-68
2022/07/03 05:26:44;;;;;;;19.10;15.50;;;;;;;19.74;55.66;101641.50;5054559;28;20047;-68
2022/07/03 05:29:11;;;;;;;16.42;14.75;;;;;;;19.82;55.87;101645.22;5054734;28;20045;-69
2022/07/03 05:31:37;;;;;;;15.15;12.57;;;;;;;19.92;55.67;101642.44;5054558;28;20052;-69
2022/07/03 05:34:06;;;;;;;14.52;12.98;;;;;;;20.02;55.63;101647.84;5054786;28;20037;-69
2022/07/03 05:36:32;;;;;;;13.05;11.57;;;;;;;20.10;55.73;101648.84;5053710;28;20041;-69
2022/07/03 05:41:44;;;;;;;13.63;10.73;;;;;;;20.33;55.82;101649.28;5054401;28;20037;-69
2022/07/03 05:44:14;;;;;;;12.98;10.63;;;;;;;20.40;56.05;101642.22;5054509;28;20394;-69
2022/07/03 05:46:41;;;;;;;13.65;9.80;;;;;;;20.48;56.06;101645.06;5054215;28;20312;-69
2022/07/03 05:49:07;;;;;;;10.48;8.10;;;;;;;20.55;56.11;101648.88;5054376;28;20128;-69
2022/07/03 05:51:34;;;;;;;8.88;7.00;;;;;;;20.61;55.82;101644.66;5052788;28;20505;-69
2022/07/03 05:54:05;;;;;;;10.55;6.93;;;;;;;20.67;55.72;101646.78;5053224;28;20037;-68
2022/07/03 05:56:31;;;;;;;9.32;6.57;;;;;;;20.76;55.78;101643.13;5054494;28;20049;-69
2022/07/03 05:58:58;;;;;;;9.57;5.75;;;;;;;20.82;55.42;101649.84;5054124;28;20051;-69
2022/07/03 06:01:24;;;;;;;7.07;5.57;;;;;;;20.90;55.61;101649.94;5054101;28;20041;-69
2022/07/03 06:03:55;;;;;;;7.53;6.30;;;;;;;20.98;55.29;101646.41;5053713;28;20040;-69
2022/07/03 06:06:22;;;;;;;7.82;6.68;;;;;;;21.07;55.44;101645.47;5054020;28;20447;-69
2022/07/03 06:08:48;;;;;;;8.18;5.43;;;;;;;21.21;55.41;101651.22;5053903;28;20053;-70
2022/07/03 06:11:15;;;;;;;7.28;5.95;;;;;;;21.34;55.40;101652.72;5053885;28;20037;-69
2022/07/03 06:13:44;;;;;;;9.57;5.90;;;;;;;21.44;54.88;101656.22;5053689;28;20044;-68
2022/07/03 06:16:11;;;;;;;7.20;5.30;;;;;;;21.58;54.80;101663.00;5053574;28;20052;-69
2022/07/03 06:18:37;;;;;;;7.70;5.70;;;;;;;21.73;54.90;101666.84;5052395;28;20041;-68
2022/07/03 06:21:04;;;;;;;6.82;4.60;;;;;;;21.85;54.56;101662.81;5053724;28;20055;-69
2022/07/03 06:23:32;;;;;;;8.18;4.78;;;;;;;21.94;54.10;101656.38;5053562;28;20116;-68
2022/07/03 06:26:14;;;;;;;5.78;4.63;;;;;;;22.05;53.98;101658.00;5053842;28;20384;-69
2022/07/03 06:28:42;;;;;;;6.28;4.53;;;;;;;22.16;53.97;101660.44;5052409;28;20521;-69
2022/07/03 06:31:09;;;;;;;7.82;4.60;;;;;;;22.29;54.02;101670.91;5052255;28;20043;-69
2022/07/03 06:33:36;;;;;;;9.93;4.80;;;;;;;22.38;53.35;101653.53;5053624;28;20554;-69
2022/07/03 06:36:02;;;;;;;5.40;4.13;;;;;;;22.48;53.33;101659.72;5054144;28;20402;-69
2022/07/03 06:38:29;;;;;;;7.18;4.25;;;;;;;22.62;53.14;101670.00;5053673;28;20091;-70
2022/07/03 06:40:56;;;;;;;8.60;4.70;;;;;;;22.77;52.88;101668.34;5053429;28;20051;-70
2022/07/03 06:43:24;;;;;;;5.68;4.20;;;;;;;22.89;52.91;101670.78;5053602;28;20049;-68
2022/07/03 06:45:50;;;;;;;8.43;4.00;;;;;;;22.98;52.47;101672.50;5053169;28;20049;-68
2022/07/03 06:48:17;;;;;;;6.00;3.65;;;;;;;23.08;52.56;101668.59;5052137;28;20094;-70
2022/07/03 06:50:45;;;;;;;5.80;3.10;;;;;;;23.21;52.32;101670.81;5052019;28;20044;-69
2022/07/03 06:53:16;;;;;;;6.90;3.25;;;;;;;23.31;51.87;101670.66;5053106;28;20055;-70
2022/07/03 06:55:43;;;;;;;6.47;3.47;;;;;;;23.39;51.99;101671.50;5053187;28;20052;-69
2022/07/03 06:58:09;;;;;;;6.32;3.17;;;;;;;23.52;51.98;101676.44;5053215;28;20375;-69
2022/07/03 07:00:38;;;;;;;5.15;3.20;;;;;;;23.60;51.36;101670.13;5051906;28;20052;-69
2022/07/03 07:03:08;;;;;;;4.53;3.10;;;;;;;23.68;51.24;101668.22;5053123;28;20439;-69
2022/07/03 07:05:35;;;;;;;4.57;3.08;;;;;;;23.77;51.16;101667.19;5053066;28;20426;-69
2022/07/03 07:08:02;;;;;;;4.43;3.17;;;;;;;23.88;50.99;101674.22;5034912;28;20055;-69
2022/07/03 07:10:29;;;;;;;6.00;2.78;;;;;;;24.01;50.72;101665.41;5053121;28;20060;-70
2022/07/03 07:12:59;;;;;;;7.25;3.15;;;;;;;24.14;50.53;101670.34;5053201;28;20049;-70
2022/07/03 07:15:27;;;;;;;5.90;3.38;;;;;;;24.28;50.63;101678.72;5051350;28;20068;-69
2022/07/03 07:17:53;;;;;;;8.45;3.38;;;;;;;24.39;50.17;101675.59;5052912;28;20037;-69
2022/07/03 07:20:20;;;;;;;9.52;4.00;;;;;;;24.51;50.13;101675.19;5053164;28;20060;-69
2022/07/03 07:22:47;;;;;;;6.75;3.10;;;;;;;24.61;50.05;101671.19;5052906;28;20048;-69
2022/07/03 07:25:13;;;;;;;6.47;3.30;;;;;;;24.74;49.85;101676.09;5052732;28;20461;-70
2022/07/03 07:27:40;;;;;;;5.18;2.70;;;;;;;24.87;49.67;101670.00;5052936;28;20037;-70
2022/07/03 07:30:07;;;;;;;5.10;2.40;;;;;;;24.97;49.34;101671.50;5052374;28;20041;-70
2022/07/03 07:32:58;;;;;;;6.05;2.70;;;;;;;25.13;49.09;101670.50;5052162;28;20033;-70
2022/07/03 07:35:25;;;;;;;4.63;2.63;;;;;;;25.34;48.73;101676.22;5052753;28;20045;-69
2022/07/03 07:37:51;;;;;;;3.28;2.00;;;;;;;25.48;48.55;101676.44;5052442;28;20047;-70
2022/07/03 07:40:18;;;;;;;4.15;1.90;;;;;;;25.55;47.57;101680.13;5051381;28;20045;-70
2022/07/03 07:42:46;;;;;;;5.10;2.20;;;;;;;25.52;47.27;101680.50;5052567;28;20040;-70
2022/07/03 07:45:12;;;;;;;5.05;1.98;;;;;;;25.55;47.18;101685.63;5052622;28;20052;-70
2022/07/03 07:47:39;;;;;;;4.15;1.83;;;;;;;25.60;46.68;101688.69;5052037;28;20051;-72
2022/07/03 07:50:06;;;;;;;5.90;2.30;;;;;;;25.64;46.50;101692.78;5052216;28;20045;-68
2022/07/03 07:52:36;;;;;;;3.83;1.83;;;;;;;25.69;46.16;101695.84;5052394;28;20037;-67
2022/07/03 07:55:05;;;;;;;3.88;2.20;;;;;;;25.76;45.84;101691.31;5052442;28;20403;-68
2022/07/03 07:57:38;;;;;;;9.07;2.90;;;;;;;25.80;45.67;101689.88;5051362;28;20403;-68
2022/07/03 08:00:16;;;;;;;6.30;2.65;;;;;;;25.89;46.05;101686.00;5051384;28;20053;-67
2022/07/03 08:05:37;;;;;;;5.88;3.10;;;;;;;26.26;45.95;101689.72;5051098;28;20045;-68
2022/07/03 08:08:05;;;;;;;3.45;2.72;;;;;;;26.41;45.50;101685.06;5050726;28;20525;-67
2022/07/03 08:10:49;;;;;;;4.35;2.33;;;;;;;26.58;45.21;101692.06;5049466;28;20119;-67
2022/07/03 08:13:18;;;;;;;2.90;2.30;;;;;;;26.70;44.96;101684.16;5050630;28;20049;-67
2022/07/03 08:15:49;;;;;;;4.43;1.90;;;;;;;26.77;44.77;101693.38;5050516;28;20057;-68
2022/07/03 08:18:15;;;;;;;3.20;1.80;;;;;;;26.90;44.60;101693.53;5053915;28;20045;-67
2022/07/03 08:20:42;;;;;;;4.22;1.75;;;;;;;27.11;44.26;101684.44;5054133;28;20052;-68
2022/07/03 08:23:09;;;;;;;5.90;1.90;;;;;;;27.28;43.82;101685.00;5054227;28;20045;-67
2022/07/03 08:25:35;;;;;;;4.43;2.15;;;;;;;27.43;43.22;101683.03;5054424;28;20044;-70
2022/07/03 08:28:02;;;;;;;3.05;2.60;;;;;;;27.51;42.84;101688.44;5055738;28;20384;-68
2022/07/03 08:30:29;;;;;;;2.78;1.80;;;;;;;27.53;42.58;101694.59;5055977;28;20398;-68
2022/07/03 08:33:00;;;;;;;2.88;1.70;;;;;;;27.52;42.31;101694.81;5054852;28;20049;-68
2022/07/03 08:35:28;;;;;;;3.55;1.70;;;;;;;27.58;42.44;101693.16;5055582;28;20430;-68
2022/07/03 08:37:55;;;;;;;2.65;1.52;;;;;;;27.72;41.94;101689.47;5055789;28;20044;-68
2022/07/03 08:40:22;;;;;;;4.07;1.58;;;;;;;27.81;41.65;101685.50;5055784;28;20049;-68
2022/07/03 08:43:03;;;;;;;5.60;1.48;;;;;;;27.93;41.55;101691.31;5055715;28;20068;-68
2022/07/03 08:45:34;;;;;;;3.22;1.30;;;;;;;27.99;41.08;101690.50;5053204;28;20520;-68
2022/07/03 08:48:02;;;;;;;5.10;1.80;;;;;;;27.94;40.74;101687.50;5055230;28;20037;-68
2022/07/03 08:50:32;;;;;;;2.67;1.60;;;;;;;27.90;40.53;101686.19;5055678;28;20116;-67
2022/07/03 08:53:03;;;;;;;3.50;1.92;;;;;;;27.92;40.64;101682.16;5054925;28;20060;-68
2022/07/03 08:55:29;;;;;;;3.10;2.00;;;;;;;28.00;40.76;101681.16;5055174;28;20033;-68
2022/07/03 08:58:01;;;;;;;3.15;2.05;;;;;;;28.10;40.43;101684.41;5054619;28;20052;-68
2022/07/03 09:00:28;;;;;;;2.45;2.00;;;;;;;28.18;40.47;101671.28;5055329;28;20041;-70
2022/07/03 09:02:59;;;;;;;3.05;2.40;;;;;;;28.25;40.46;101678.81;5054202;28;20475;-70
2022/07/03 09:05:26;;;;;;;5.07;2.05;;;;;;;28.28;40.53;101679.25;5055029;28;20502;-70
2022/07/03 09:07:53;;;;;;;3.75;2.00;;;;;;;28.37;40.32;101674.38;5055241;28;20055;-68
2022/07/03 09:10:20;;;;;;;3.25;1.98;;;;;;;28.44;39.98;101675.28;5055497;28;20076;-68
2022/07/03 09:12:49;;;;;;;3.72;2.20;;;;;;;28.50;39.85;101674.44;5054851;28;20041;-67
2022/07/03 09:15:16;;;;;;;4.72;2.00;;;;;;;28.51;39.80;101680.81;5054225;28;20037;-68
2022/07/03 09:18:03;;;;;;;3.15;2.10;;;;;;;28.60;39.58;101672.13;5054901;28;20422;-68
2022/07/03 09:20:37;;;;;;;4.93;1.65;;;;;;;28.71;39.41;101673.44;5054829;28;20120;-68
2022/07/03 09:23:15;;;;;;;5.53;1.80;;;;;;;28.78;39.17;101685.38;5054986;28;20402;-68
2022/07/03 09:26:02;;;;;;;4.43;1.90;;;;;;;28.80;39.11;101680.50;5054741;28;20044;-67
2022/07/03 09:28:55;;;;;;;2.92;1.65;;;;;;;28.86;38.83;101676.91;5053341;28;20048;-67
2022/07/03 09:31:28;;;;;;;8.40;3.10;;;;;;;28.93;38.70;101683.31;5053452;28;20048;-68
2022/07/03 09:34:04;;;;;;;4.90;2.55;;;;;;;28.93;38.76;101683.31;5052622;28;20041;-68
2022/07/03 09:36:48;;;;;;;5.00;2.30;;;;;;;28.99;38.95;101687.19;5054567;28;20037;-69
2022/07/03 09:39:30;;;;;;;3.05;2.40;;;;;;;29.05;38.74;101686.34;5054613;28;20404;-68
2022/07/03 09:42:01;;;;;;;4.00;2.30;;;;;;;29.08;38.45;101686.78;5053210;28;20521;-68
2022/07/03 09:44:31;;;;;;;3.92;2.20;;;;;;;29.08;38.59;101681.25;5036697;28;20388;-68
2022/07/03 09:47:10;;;;;;;4.93;2.90;;;;;;;29.04;38.65;101677.19;5052607;28;20398;-68
2022/07/03 09:49:54;;;;;;;6.30;2.20;;;;;;;29.12;38.62;101691.88;5052892;28;20045;-68
2022/07/03 09:52:46;;;;;;;3.60;2.22;;;;;;;29.17;38.33;101689.34;5054456;28;20041;-69
2022/07/03 09:55:16;;;;;;;3.88;2.38;;;;;;;29.18;38.37;101691.91;5053014;28;20120;-68
2022/07/03 09:57:59;;;;;;;4.53;2.92;;;;;;;29.19;38.26;101692.75;5053992;28;20041;-69
2022/07/03 10:00:29;;;;;;;4.93;2.38;;;;;;;29.09;38.36;101694.00;5053679;28;20063;-69
2022/07/03 10:02:59;;;;;;;4.10;2.20;;;;;;;28.98;38.18;101696.50;5053628;28;20111;-68
2022/07/03 10:05:44;;;;;;;4.03;2.28;;;;;;;28.94;38.20;101692.47;5054006;28;20075;-68
2022/07/03 10:08:15;;;;;;;3.78;1.77;;;;;;;28.89;38.06;101693.09;5053563;28;20064;-68
2022/07/03 10:10:44;;;;;;;3.25;1.40;;;;;;;28.85;38.00;101696.47;5053921;28;20051;-68
2022/07/03 10:13:16;;;;;;;3.75;1.33;;;;;;;28.85;38.17;101702.00;5053851;28;20055;-67
2022/07/03 10:15:43;;;;;;;2.45;1.60;;;;;;;28.91;38.35;101692.88;5053238;28;20040;-68
2022/07/03 10:18:14;;;;;;;3.20;1.95;;;;;;;29.00;38.23;101698.03;5035679;28;20414;-68
2022/07/03 10:20:49;;;;;;;4.93;1.80;;;;;;;29.07;38.23;101692.53;5053163;28;20155;-69
2022/07/03 10:23:22;;;;;;;2.75;1.55;;;;;;;29.11;38.29;101693.81;5053404;28;20384;-69
2022/07/03 10:25:49;;;;;;;7.55;1.67;;;;;;;29.17;37.71;101701.25;5053028;28;20052;-68
2022/07/03 10:28:17;;;;;;;2.33;1.77;;;;;;;29.24;37.49;101699.34;5053116;28;20041;-70
2022/07/03 10:30:48;;;;;;;3.72;1.95;;;;;;;29.19;37.41;101704.66;5051161;28;20562;-68
2022/07/03 10:33:20;;;;;;;2.33;1.50;;;;;;;29.16;37.38;101705.09;5053105;28;20037;-67
2022/07/03 10:35:52;;;;;;;6.28;1.85;;;;;;;29.18;37.53;101702.09;5053261;28;20052;-68
2022/07/03 10:38:24;;;;;;;4.13;1.98;;;;;;;29.23;37.48;101711.47;5052011;28;20037;-68
2022/07/03 10:46:36;;;;;;;4.38;2.13;;;;;;;29.34;37.64;101704.47;5054792;28;20049;-67
2022/07/03 10:49:10;;;;;;;3.75;1.90;;;;;;;29.36;37.33;101721.69;5052598;28;20049;-69
2022/07/03 10:51:49;;;;;;;2.85;2.50;;;;;;;29.35;37.03;101715.31;5052752;28;20406;-68
2022/07/03 10:54:21;;;;;;;4.53;2.00;;;;;;;29.33;37.05;101722.97;5052547;28;20132;-70
2022/07/03 10:57:00;;;;;;;2.85;2.40;;;;;;;29.39;36.98;101711.06;5053160;28;20045;-69
2022/07/03 10:59:35;;;;;;;2.42;1.67;;;;;;;29.40;37.02;101714.69;5052925;28;20047;-69
2022/07/03 11:02:32;;;;;;;3.30;2.00;;;;;;;29.46;37.21;101716.63;5053195;28;20049;-69
2022/07/03 11:04:59;;;;;;;2.67;1.60;;;;;;;29.54;36.85;101721.97;5052429;28;20388;-69
2022/07/03 11:07:31;;;;;;;3.75;1.80;;;;;;;29.49;36.81;101713.44;5052822;28;20052;-70
2022/07/03 11:10:12;;;;;;;3.17;1.83;;;;;;;29.55;36.78;101714.50;5053403;28;20421;-69
2022/07/03 11:13:07;;;;;;;3.15;2.00;;;;;;;29.61;36.74;101703.44;5051720;28;20055;-70
2022/07/03 11:15:38;;;;;;;4.03;1.30;;;;;;;29.77;36.70;101701.31;5051548;28;20037;-69
2022/07/03 11:18:08;;;;;;;2.70;1.58;;;;;;;29.81;36.40;101708.13;5049997;28;20383;-70
2022/07/03 11:21:02;;;;;;;2.85;1.92;;;;;;;29.84;36.06;101703.00;5051165;28;20128;-69
2022/07/03 11:23:41;;;;;;;5.28;2.03;;;;;;;29.85;36.00;101707.47;5030234;28;20045;-70
2022/07/03 11:26:07;;;;;;;2.88;1.98;;;;;;;29.73;35.69;101707.28;5014200;28;20418;-70
2022/07/03 11:28:34;;;;;;;1.92;1.70;;;;;;;29.51;35.55;101703.00;5032796;28;20503;-67
2022/07/03 11:31:07;;;;;;;2.88;1.77;;;;;;;29.31;35.75;101707.66;5050432;28;20045;-69
2022/07/03 11:33:42;;;;;;;3.25;2.10;;;;;;;29.10;35.98;101701.25;5052333;28;20067;-67
2022/07/03 11:36:10;;;;;;;5.15;2.15;;;;;;;28.98;36.14;101702.91;5052236;28;20057;-68
2022/07/03 11:38:37;;;;;;;2.53;1.67;;;;;;;28.89;36.32;101703.31;5051357;28;20041;-67
2022/07/03 11:41:09;;;;;;;2.63;1.42;;;;;;;28.83;36.01;101704.94;5034438;28;20048;-67
2022/07/03 11:44:01;;;;;;;5.70;1.30;;;;;;;28.79;36.14;101695.38;5052183;28;20049;-69
2022/07/03 11:46:37;;;;;;;3.17;1.40;;;;;;;28.80;36.34;101694.31;5033398;28;20120;-67
2022/07/03 11:49:24;;;;;;;4.10;1.50;;;;;;;28.82;36.40;101694.94;5051062;28;20075;-68
2022/07/03 11:52:03;;;;;;;1.75;1.60;;;;;;;28.87;36.60;101694.34;5038758;28;20139;-68
2022/07/03 11:54:33;;;;;;;2.65;1.30;;;;;;;28.96;36.96;101690.34;5051076;28;20501;-68
2022/07/03 11:57:01;;;;;;;2.38;1.52;;;;;;;29.02;36.95;101692.28;5056440;28;20041;-67
2022/07/03 11:59:28;;;;;;;3.08;1.30;;;;;;;29.04;37.38;101692.94;5055813;28;20045;-68